createdAt,value
2023-05-21T00:01:45.736Z,81.01
2023-05-21T00:06:47.548Z,82.22
2023-05-21T00:11:49.324Z,82.11
2023-05-21T00:16:51.096Z,81.52
2023-05-21T00:21:53.454Z,81.40
2023-05-21T00:26:56.325Z,82.23
2023-05-21T00:31:58.381Z,83.68
2023-05-21T00:37:02.765Z,82.89
2023-05-21T00:42:05.042Z,82.32
2023-05-21T00:47:08.193Z,83.05
2023-05-21T00:52:10.134Z,83.44
2023-05-21T00:57:12.133Z,83.32
2023-05-21T01:02:18.223Z,86.36
2023-05-21T01:07:20.263Z,85.26
2023-05-21T01:12:23.718Z,85.06
2023-05-21T01:17:28.564Z,84.25
2023-05-21T01:22:32.673Z,83.95
2023-05-21T01:27:34.504Z,84.02
2023-05-21T01:33:13.150Z,84.66
2023-05-21T01:38:31.238Z,83.95
2023-05-21T01:43:37.088Z,83.86
2023-05-21T01:48:39.171Z,84.80
2023-05-21T01:53:41.599Z,86.18
2023-05-21T01:58:44.077Z,85.62
2023-05-21T02:03:46.044Z,84.88
2023-05-21T02:08:49.475Z,85.77
2023-05-21T02:13:51.254Z,85.04
2023-05-21T02:18:57.372Z,85.26
2023-05-21T02:23:59.365Z,85.49
2023-05-21T02:29:01.550Z,85.84
2023-05-21T02:34:03.436Z,85.50
2023-05-21T02:39:05.209Z,85.14
2023-05-21T02:44:07.241Z,85.98
2023-05-21T02:49:09.058Z,84.87
2023-05-21T02:54:10.930Z,84.51
2023-05-21T02:59:12.728Z,85.33
2023-05-21T03:04:14.655Z,84.88
2023-05-21T03:09:16.833Z,85.78
2023-05-21T03:14:18.663Z,84.48
2023-05-21T03:19:21.472Z,84.17
2023-05-21T03:24:23.409Z,83.81
2023-05-21T03:29:25.376Z,85.89
2023-05-21T03:34:27.289Z,85.58
2023-05-21T03:39:29.097Z,82.20
2023-05-21T03:44:32.651Z,80.96
2023-05-21T03:49:51.032Z,79.43
2023-05-21T03:54:52.920Z,80.41
2023-05-21T03:59:54.890Z,75.58
2023-05-21T04:04:56.775Z,68.46
2023-05-21T04:09:59.988Z,65.20
2023-05-21T04:15:02.705Z,62.05
2023-05-21T04:20:05.098Z,61.08
2023-05-21T04:25:08.099Z,58.52
2023-05-21T04:30:12.812Z,63.98
2023-05-21T04:35:16.067Z,66.65
2023-05-21T04:40:24.291Z,67.55
2023-05-21T04:45:26.045Z,68.27
2023-05-21T04:50:30.896Z,67.94
2023-05-21T04:55:33.117Z,67.00
2023-05-21T05:00:37.775Z,66.99
2023-05-21T05:05:40.859Z,67.07
2023-05-21T05:10:42.754Z,66.21
2023-05-21T05:15:44.666Z,66.17
2023-05-21T05:20:47.772Z,66.06
2023-05-21T05:25:49.582Z,64.40
2023-05-21T05:30:51.409Z,64.17
2023-05-21T05:36:01.128Z,63.61
2023-05-21T05:41:03.326Z,63.02
2023-05-21T05:46:05.301Z,63.81
2023-05-21T05:51:07.334Z,63.12
2023-05-21T05:56:09.121Z,61.54
2023-05-21T06:01:11.855Z,60.73
2023-05-21T06:06:15.393Z,60.75
2023-05-21T06:11:20.941Z,61.43
2023-05-21T06:16:24.945Z,62.22
2023-05-21T06:21:28.563Z,62.76
2023-05-21T06:26:31.109Z,62.39
2023-05-21T06:31:34.272Z,63.25
2023-05-21T06:36:36.619Z,62.18
2023-05-21T06:41:38.452Z,60.10
2023-05-21T06:46:57.898Z,58.99
2023-05-21T06:51:59.906Z,57.42
2023-05-21T06:57:03.799Z,55.79
2023-05-21T07:37:55.525Z,48.28
2023-05-21T07:57:10.443Z,49.88
2023-05-21T08:02:30.025Z,49.24
2023-05-21T08:07:32.598Z,49.53
2023-05-21T08:12:34.853Z,50.18
2023-05-21T08:17:36.984Z,47.77
2023-05-21T08:22:38.833Z,48.00
2023-05-21T08:27:41.011Z,49.30
2023-05-21T08:32:44.048Z,47.79
2023-05-21T08:37:46.917Z,48.58
2023-05-21T08:43:01.157Z,48.81
2023-05-21T08:48:19.019Z,50.51
2023-05-21T08:53:28.696Z,52.95
2023-05-21T08:58:33.825Z,49.63
2023-05-21T09:03:39.792Z,48.73
2023-05-21T09:08:46.036Z,46.98
2023-05-21T09:13:58.331Z,44.99
2023-05-21T09:19:08.206Z,44.36
2023-05-21T09:24:11.155Z,43.69
2023-05-21T09:29:13.697Z,41.23
2023-05-21T09:34:15.957Z,40.53
2023-05-21T09:39:30.081Z,40.66
2023-05-21T09:44:35.859Z,38.23
2023-05-21T09:49:38.391Z,39.25
2023-05-21T09:54:40.708Z,36.38
2023-05-21T09:59:42.620Z,38.30
2023-05-21T10:04:47.897Z,38.90
2023-05-21T10:09:50.664Z,37.35
2023-05-21T10:15:00.178Z,36.54
2023-05-21T10:20:02.838Z,37.85
2023-05-21T10:25:08.095Z,36.58
2023-05-21T10:30:10.234Z,36.78
2023-05-21T10:35:14.534Z,35.63
2023-05-21T10:40:16.466Z,36.17
2023-05-21T10:45:57.090Z,33.78
2023-05-21T10:51:10.618Z,35.62
2023-05-21T10:56:25.350Z,33.85
2023-05-21T11:01:36.509Z,33.21
2023-05-21T11:06:38.354Z,34.62
2023-05-21T11:11:44.193Z,31.87
2023-05-21T11:16:46.885Z,34.80
2023-05-21T11:21:51.646Z,33.60
2023-05-21T11:26:58.549Z,31.13
2023-05-21T11:32:05.429Z,30.40
2023-05-21T11:37:26.917Z,30.29
2023-05-21T11:42:38.791Z,30.43
2023-05-21T11:47:40.603Z,31.38
2023-05-21T11:52:43.035Z,31.47
2023-05-21T11:57:44.961Z,32.50
2023-05-21T12:02:50.719Z,32.70
2023-05-21T12:07:54.592Z,32.18
2023-05-21T12:12:57.501Z,32.35
2023-05-21T12:17:59.570Z,30.23
2023-05-21T12:23:01.339Z,32.03
2023-05-21T12:28:06.283Z,32.66
2023-05-21T12:33:08.372Z,33.14
2023-05-21T12:38:13.164Z,31.21
2023-05-21T12:43:14.995Z,31.85
2023-05-21T12:48:16.809Z,29.58
2023-05-21T12:53:18.544Z,32.29
2023-05-21T12:58:22.282Z,32.94
2023-05-21T13:03:24.049Z,31.39
2023-05-21T13:08:25.805Z,30.39
2023-05-21T13:13:27.597Z,28.69
2023-05-21T13:18:29.376Z,30.00
2023-05-21T13:23:31.115Z,29.75
2023-05-21T13:28:32.904Z,30.73
2023-05-21T13:33:34.760Z,31.43
2023-05-21T13:38:37.870Z,31.33
2023-05-21T13:43:42.984Z,29.38
2023-05-21T13:48:47.847Z,30.58
2023-05-21T13:53:49.648Z,31.27
2023-05-21T13:58:51.432Z,31.31
2023-05-21T14:03:53.235Z,29.16
2023-05-21T14:08:54.998Z,31.19
2023-05-21T14:13:57.085Z,32.02
2023-05-21T14:18:59.404Z,29.14
2023-05-21T14:24:01.238Z,30.04
2023-05-21T14:29:03.086Z,28.42
2023-05-21T14:34:06.932Z,32.72
2023-05-21T14:39:08.747Z,30.34
2023-05-21T14:44:10.478Z,31.08
2023-05-21T14:49:15.518Z,30.38
2023-05-21T14:54:17.262Z,29.71
2023-05-21T14:59:19.046Z,29.98
2023-05-21T15:04:20.858Z,32.03
2023-05-21T15:09:22.594Z,31.23
2023-05-21T15:14:24.326Z,31.71
2023-05-21T15:19:26.178Z,30.30
2023-05-21T15:24:28.073Z,30.82
2023-05-21T15:29:29.829Z,30.52
2023-05-21T15:34:32.628Z,32.33
2023-05-21T15:39:34.562Z,33.07
2023-05-21T15:44:36.317Z,33.28
2023-05-21T15:49:38.142Z,31.06
2023-05-21T15:54:39.885Z,31.14
2023-05-21T15:59:47.837Z,32.62
2023-05-21T16:04:51.765Z,34.24
2023-05-21T16:09:53.752Z,32.13
2023-05-21T16:14:55.558Z,32.88
2023-05-21T16:19:57.641Z,32.76
2023-05-21T16:24:59.386Z,32.42
2023-05-21T16:30:01.281Z,34.74
2023-05-21T16:35:06.816Z,35.07
2023-05-21T16:40:09.262Z,34.89
2023-05-21T16:45:20.384Z,34.47
2023-05-21T16:50:22.182Z,34.17
2023-05-21T16:55:23.919Z,34.47
2023-05-21T17:00:25.657Z,34.99
2023-05-21T17:05:27.488Z,35.32
2023-05-21T17:10:29.418Z,36.01
2023-05-21T17:15:31.727Z,36.71
2023-05-21T17:20:33.566Z,34.96
2023-05-21T17:25:35.893Z,34.26
2023-05-21T17:30:38.603Z,33.97
2023-05-21T17:35:40.481Z,35.31
2023-05-21T17:40:42.223Z,37.35
2023-05-21T17:45:44.009Z,39.89
2023-05-21T17:50:46.950Z,40.52
2023-05-21T17:55:48.755Z,41.92
2023-05-21T18:00:50.720Z,43.17
2023-05-21T18:05:52.503Z,43.65
2023-05-21T18:10:54.262Z,44.64
2023-05-21T18:15:59.159Z,46.01
2023-05-21T18:21:01.000Z,47.02
2023-05-21T18:26:03.064Z,47.73
2023-05-21T18:31:04.902Z,48.68
2023-05-21T18:36:06.885Z,49.42
2023-05-21T18:41:12.313Z,50.17
2023-05-21T18:46:16.329Z,51.00
2023-05-21T18:51:18.148Z,51.55
2023-05-21T18:56:22.335Z,51.58
2023-05-21T19:01:24.330Z,52.24
2023-05-21T19:06:27.813Z,52.40
2023-05-21T19:11:34.273Z,52.70
2023-05-21T19:16:36.170Z,54.41
2023-05-21T19:21:38.135Z,54.91
2023-05-21T19:26:40.244Z,55.36
2023-05-21T19:31:42.800Z,55.81
2023-05-21T19:36:52.769Z,56.83
2023-05-21T19:41:55.433Z,57.06
2023-05-21T19:46:57.260Z,57.76
2023-05-21T19:51:59.514Z,58.01
2023-05-21T19:57:01.290Z,58.37
2023-05-21T20:02:03.324Z,59.31
2023-05-21T20:07:05.301Z,62.02
2023-05-21T20:12:07.778Z,63.01
2023-05-21T20:17:10.198Z,62.71
2023-05-21T20:22:15.619Z,62.43
2023-05-21T20:27:19.530Z,63.38
2023-05-21T20:32:21.516Z,62.68
2023-05-21T20:37:26.191Z,64.55
2023-05-21T20:42:34.089Z,65.60
2023-05-21T20:47:36.274Z,66.14
2023-05-21T20:52:38.164Z,67.25
2023-05-21T20:57:40.039Z,68.26
2023-05-21T21:02:41.875Z,67.06
2023-05-21T21:07:45.758Z,67.50
2023-05-21T21:12:48.960Z,67.65
2023-05-21T21:17:50.995Z,66.82
2023-05-21T21:22:52.880Z,67.36
2023-05-21T21:27:54.797Z,68.66
2023-05-21T21:32:56.684Z,68.33
2023-05-21T21:37:58.670Z,68.12
2023-05-21T21:43:00.436Z,68.04
2023-05-21T21:48:02.265Z,67.26
2023-05-21T21:53:05.905Z,67.12
2023-05-21T21:58:07.683Z,67.80
2023-05-21T22:03:10.000Z,67.42
2023-05-21T22:08:13.016Z,67.98
2023-05-21T22:13:14.861Z,68.76
2023-05-21T22:18:25.326Z,69.05
2023-05-21T22:23:33.918Z,69.03
2023-05-21T22:28:35.835Z,68.68
2023-05-21T22:33:37.750Z,69.54
2023-05-21T22:38:39.544Z,70.72
2023-05-21T22:43:42.341Z,70.48
2023-05-21T22:48:46.123Z,70.93
2023-05-21T22:53:48.042Z,69.50
2023-05-21T22:58:49.817Z,70.05
2023-05-21T23:03:51.668Z,69.68
2023-05-21T23:08:53.433Z,70.34
2023-05-21T23:13:55.205Z,70.21
2023-05-21T23:18:57.048Z,71.72
2023-05-21T23:23:58.846Z,72.23
2023-05-21T23:29:01.769Z,72.46
2023-05-21T23:34:04.764Z,73.03
2023-05-21T23:39:06.534Z,72.04
2023-05-21T23:44:08.278Z,74.21
2023-05-21T23:49:10.068Z,74.32
2023-05-21T23:54:11.934Z,72.91
2023-05-21T23:59:15.108Z,74.29
